createdAt,value
2018-08-18T00:00:05.047Z,6.87
2018-08-18T00:02:37.163Z,5.33
2018-08-18T00:05:07.174Z,5.90
2018-08-18T00:07:35.581Z,5.70
2018-08-18T00:10:06.091Z,5.57
2018-08-18T00:12:34.426Z,6.90
2018-08-18T00:15:02.846Z,6.40
2018-08-18T00:17:38.147Z,6.60
2018-08-18T00:20:10.285Z,6.50
2018-08-18T00:22:38.961Z,5.70
2018-08-18T00:25:07.308Z,5.77
2018-08-18T00:27:35.884Z,5.90
2018-08-18T00:30:10.532Z,6.90
2018-08-18T00:32:39.240Z,6.07
2018-08-18T00:35:08.018Z,6.97
2018-08-18T00:37:36.598Z,7.27
2018-08-18T00:40:06.498Z,7.00
2018-08-18T00:42:34.817Z,7.60
2018-08-18T00:45:03.133Z,5.73
2018-08-18T00:47:31.464Z,8.57
2018-08-18T00:50:00.091Z,9.23
2018-08-18T00:52:28.494Z,8.83
2018-08-18T00:54:56.822Z,9.23
2018-08-18T00:57:28.591Z,7.63
2018-08-18T00:59:57.109Z,7.57
2018-08-18T01:02:25.737Z,7.93
2018-08-18T01:04:58.203Z,8.00
2018-08-18T01:07:27.237Z,7.97
2018-08-18T01:09:55.697Z,7.20
2018-08-18T01:12:24.666Z,8.30
2018-08-18T01:14:53.485Z,7.60
2018-08-18T01:17:22.327Z,6.90
2018-08-18T01:19:53.152Z,7.10
2018-08-18T01:22:21.586Z,7.40
2018-08-18T01:24:50.436Z,6.43
2018-08-18T01:27:18.983Z,9.50
2018-08-18T01:29:54.584Z,6.77
2018-08-18T01:32:22.998Z,8.50
2018-08-18T01:34:51.913Z,8.77
2018-08-18T01:37:21.134Z,8.17
2018-08-18T01:39:50.854Z,8.03
2018-08-18T01:42:19.151Z,8.23
2018-08-18T01:44:47.470Z,7.83
2018-08-18T01:47:34.320Z,7.80
2018-08-18T01:50:07.950Z,7.20
2018-08-18T01:52:37.316Z,8.20
2018-08-18T01:55:06.997Z,8.33
2018-08-18T01:57:35.442Z,7.93
2018-08-18T02:00:26.484Z,9.00
2018-08-18T02:02:54.857Z,8.33
2018-08-18T02:05:23.440Z,8.47
2018-08-18T02:07:51.876Z,8.27
2018-08-18T02:10:20.235Z,10.57
2018-08-18T02:13:07.310Z,9.77
2018-08-18T02:15:35.741Z,9.33
2018-08-18T02:18:04.181Z,9.80
2018-08-18T02:20:32.552Z,9.80
2018-08-18T02:23:00.928Z,10.10
2018-08-18T02:25:29.353Z,8.23
2018-08-18T02:27:57.931Z,7.60
2018-08-18T02:30:26.304Z,8.80
2018-08-18T02:32:54.666Z,9.30
2018-08-18T02:35:23.048Z,9.20
2018-08-18T02:37:51.392Z,8.73
2018-08-18T02:40:19.808Z,9.87
2018-08-18T02:42:48.255Z,9.17
2018-08-18T02:45:16.918Z,7.47
2018-08-18T02:47:45.323Z,8.07
2018-08-18T02:50:14.356Z,8.67
2018-08-18T02:52:42.740Z,8.87
2018-08-18T02:55:11.573Z,9.97
2018-08-18T02:57:43.976Z,10.83
2018-08-18T03:00:35.173Z,10.10
2018-08-18T03:03:03.581Z,8.63
2018-08-18T03:05:32.025Z,9.23
2018-08-18T03:08:00.447Z,8.43
2018-08-18T03:10:28.736Z,9.10
2018-08-18T03:12:58.733Z,9.87
2018-08-18T03:16:02.907Z,9.93
2018-08-18T03:18:52.308Z,8.93
2018-08-18T03:21:30.208Z,9.20
2018-08-18T03:24:06.608Z,9.17
2018-08-18T03:26:53.570Z,9.80
2018-08-18T03:29:23.185Z,9.03
2018-08-18T03:31:51.815Z,9.73
2018-08-18T03:34:20.452Z,8.00
2018-08-18T03:36:53.013Z,8.90
2018-08-18T03:39:27.547Z,8.07
2018-08-18T03:42:00.401Z,8.73
2018-08-18T03:44:28.884Z,7.60
2018-08-18T03:46:57.407Z,8.37
2018-08-18T03:49:26.836Z,8.10
2018-08-18T03:51:56.044Z,8.80
2018-08-18T03:54:24.551Z,9.03
2018-08-18T03:56:52.983Z,7.03
2018-08-18T03:59:21.716Z,7.87
2018-08-18T04:02:00.907Z,9.40
2018-08-18T04:04:30.669Z,7.93
2018-08-18T04:07:00.008Z,8.00
2018-08-18T04:09:31.482Z,8.63
2018-08-18T04:12:01.182Z,8.50
2018-08-18T04:14:34.079Z,8.10
2018-08-18T04:17:02.722Z,9.07
2018-08-18T04:19:31.336Z,8.57
2018-08-18T04:21:59.832Z,7.03
2018-08-18T04:24:34.632Z,8.50
2018-08-18T04:27:03.182Z,8.57
2018-08-18T04:29:31.734Z,7.87
2018-08-18T04:32:01.330Z,9.50
2018-08-18T04:34:29.852Z,9.50
2018-08-18T04:36:58.493Z,8.87
2018-08-18T04:39:27.772Z,8.70
2018-08-18T04:41:56.291Z,10.33
2018-08-18T04:44:24.708Z,8.67
2018-08-18T04:46:53.081Z,10.37
2018-08-18T04:49:21.615Z,9.53
2018-08-18T04:51:50.200Z,9.30
2018-08-18T04:54:18.669Z,11.27
2018-08-18T04:56:47.224Z,10.53
2018-08-18T04:59:15.675Z,11.07
2018-08-18T05:01:45.242Z,10.10
2018-08-18T05:04:13.964Z,10.80
2018-08-18T05:06:43.604Z,9.90
2018-08-18T05:09:14.557Z,9.03
2018-08-18T05:11:43.251Z,10.00
2018-08-18T05:14:12.080Z,12.53
2018-08-18T05:16:42.701Z,10.70
2018-08-18T05:19:11.256Z,11.30
2018-08-18T05:21:39.734Z,11.97
2018-08-18T05:24:24.858Z,11.00
2018-08-18T05:26:54.243Z,12.47
2018-08-18T05:29:22.915Z,11.83
2018-08-18T05:31:51.537Z,11.43
2018-08-18T05:34:20.132Z,11.10
2018-08-18T05:36:48.712Z,10.80
2018-08-18T05:39:17.172Z,12.30
2018-08-18T05:41:45.729Z,10.63
2018-08-18T05:44:14.308Z,13.57
2018-08-18T05:46:42.932Z,12.80
2018-08-18T05:49:14.929Z,14.63
2018-08-18T05:51:45.483Z,12.97
2018-08-18T05:54:15.288Z,13.77
2018-08-18T05:56:44.911Z,13.90
2018-08-18T05:59:14.484Z,13.23
2018-08-18T06:01:43.115Z,12.60
2018-08-18T06:04:12.638Z,9.90
2018-08-18T06:06:41.736Z,10.73
2018-08-18T06:09:11.819Z,11.77
2018-08-18T06:11:40.447Z,12.10
2018-08-18T06:14:09.833Z,10.67
2018-08-18T06:16:38.452Z,9.57
2018-08-18T06:19:07.004Z,9.00
2018-08-18T06:21:35.569Z,10.43
2018-08-18T06:24:04.103Z,10.87
2018-08-18T06:26:32.612Z,9.97
2018-08-18T06:29:01.922Z,8.70
2018-08-18T06:31:30.516Z,11.00
2018-08-18T06:33:59.031Z,9.20
2018-08-18T06:36:27.431Z,10.87
2018-08-18T06:38:56.071Z,10.80
2018-08-18T06:41:24.608Z,10.00
2018-08-18T06:43:53.041Z,6.57
2018-08-18T06:46:21.578Z,7.00
2018-08-18T06:48:50.235Z,6.80
2018-08-18T06:51:18.664Z,6.30
2018-08-18T06:53:48.076Z,6.07
2018-08-18T06:56:16.848Z,8.33
2018-08-18T06:58:45.427Z,7.10
2018-08-18T07:01:14.256Z,8.67
2018-08-18T07:03:46.101Z,8.20
2018-08-18T07:06:15.763Z,7.80
2018-08-18T07:08:49.431Z,6.60
2018-08-18T07:11:18.026Z,8.83
2018-08-18T07:13:47.368Z,10.20
2018-08-18T07:16:15.758Z,9.80
2018-08-18T07:18:44.268Z,8.83
2018-08-18T07:21:12.648Z,9.17
2018-08-18T07:23:41.075Z,8.90
2018-08-18T07:26:09.598Z,8.60
2018-08-18T07:28:38.217Z,8.70
2018-08-18T07:31:06.872Z,8.87
2018-08-18T07:33:35.396Z,8.53
2018-08-18T07:36:03.949Z,8.10
2018-08-18T07:38:32.310Z,7.67
2018-08-18T07:41:00.713Z,7.67
2018-08-18T07:43:33.295Z,8.47
2018-08-18T07:46:07.146Z,7.47
2018-08-18T07:48:36.584Z,8.20
2018-08-18T07:51:04.961Z,7.17
2018-08-18T07:53:33.335Z,7.70
2018-08-18T07:56:01.735Z,7.00
2018-08-18T07:58:30.211Z,6.80
2018-08-18T08:00:59.479Z,7.70
2018-08-18T08:03:27.976Z,7.13
2018-08-18T08:05:56.394Z,7.80
2018-08-18T08:08:24.829Z,7.07
2018-08-18T08:10:57.431Z,5.77
2018-08-18T08:13:25.859Z,6.70
2018-08-18T08:15:54.292Z,6.00
2018-08-18T08:18:22.809Z,5.97
2018-08-18T08:20:51.206Z,6.40
2018-08-18T08:23:20.806Z,5.73
2018-08-18T08:25:49.363Z,6.67
2018-08-18T08:28:17.733Z,5.93
2018-08-18T08:30:46.187Z,6.13
2018-08-18T08:33:30.314Z,5.20
2018-08-18T08:35:58.850Z,4.60
2018-08-18T08:38:32.709Z,4.60
2018-08-18T08:41:01.907Z,6.13
2018-08-18T08:43:35.636Z,4.90
2018-08-18T08:46:04.144Z,5.70
2018-08-18T08:48:32.681Z,4.10
2018-08-18T08:51:01.136Z,4.00
2018-08-18T08:53:29.609Z,3.90
2018-08-18T08:55:58.940Z,4.30
2018-08-18T09:01:23.763Z,4.20
2018-08-18T09:03:52.336Z,4.70
2018-08-18T09:06:20.955Z,4.37
2018-08-18T09:08:54.580Z,4.70
2018-08-18T09:11:23.256Z,4.60
2018-08-18T09:14:00.270Z,5.13
2018-08-18T09:16:30.797Z,5.57
2018-08-18T09:18:59.370Z,4.90
2018-08-18T09:21:30.245Z,4.53
2018-08-18T09:23:59.008Z,4.93
2018-08-18T09:26:27.670Z,4.60
2018-08-18T09:28:56.243Z,4.67
2018-08-18T09:31:24.891Z,4.70
2018-08-18T09:33:54.147Z,4.73
2018-08-18T09:36:24.117Z,5.60
2018-08-18T09:38:52.730Z,5.30
2018-08-18T09:41:21.367Z,4.83
2018-08-18T09:43:50.091Z,5.60
2018-08-18T09:46:18.771Z,4.20
2018-08-18T09:48:47.622Z,4.33
2018-08-18T09:51:16.280Z,4.50
2018-08-18T09:53:44.885Z,4.80
2018-08-18T09:56:15.493Z,4.83
2018-08-18T09:58:44.097Z,4.30
2018-08-18T10:01:12.994Z,4.90
2018-08-18T10:03:41.761Z,3.97
2018-08-18T10:06:10.403Z,4.60
2018-08-18T10:08:39.412Z,4.50
2018-08-18T10:11:08.004Z,5.00
2018-08-18T10:13:36.680Z,3.90
2018-08-18T10:16:05.340Z,3.47
2018-08-18T10:18:40.952Z,3.83
2018-08-18T10:21:09.596Z,3.67
2018-08-18T10:23:38.900Z,5.73
2018-08-18T10:26:07.523Z,3.57
2018-08-18T10:28:36.274Z,3.37
2018-08-18T10:31:04.875Z,3.67
2018-08-18T10:33:34.674Z,4.00
2018-08-18T10:36:03.391Z,3.97
2018-08-18T10:38:31.973Z,3.43
2018-08-18T10:41:02.024Z,3.87
2018-08-18T10:43:30.671Z,3.50
2018-08-18T10:45:59.476Z,3.40
2018-08-18T10:48:29.138Z,3.37
2018-08-18T10:51:20.990Z,2.90
2018-08-18T10:53:50.029Z,2.80
2018-08-18T10:56:18.608Z,3.37
2018-08-18T10:59:03.857Z,2.93
2018-08-18T11:01:32.405Z,3.00
2018-08-18T11:04:01.066Z,2.90
2018-08-18T11:06:33.127Z,2.67
2018-08-18T11:09:02.465Z,2.53
2018-08-18T11:11:32.580Z,2.20
2018-08-18T11:14:01.244Z,2.40
2018-08-18T11:16:30.379Z,2.20
2018-08-18T11:18:58.967Z,2.40
2018-08-18T11:21:32.537Z,1.83
2018-08-18T11:24:05.626Z,1.80
2018-08-18T11:26:37.497Z,2.70
2018-08-18T11:29:19.348Z,1.93
2018-08-18T11:31:47.950Z,3.60
2018-08-18T11:34:18.227Z,2.37
2018-08-18T11:37:00.122Z,2.77
2018-08-18T11:39:29.989Z,1.87
2018-08-18T11:41:59.292Z,2.00
2018-08-18T11:44:27.882Z,2.10
2018-08-18T11:46:56.449Z,1.67
2018-08-18T11:49:25.099Z,1.97
2018-08-18T11:51:54.858Z,2.10
2018-08-18T11:54:23.520Z,1.73
2018-08-18T11:56:53.035Z,2.03
2018-08-18T11:59:21.553Z,1.60
2018-08-18T12:01:51.957Z,1.70
2018-08-18T12:04:21.677Z,1.37
2018-08-18T12:06:55.424Z,1.93
2018-08-18T12:09:24.259Z,1.60
2018-08-18T12:11:52.785Z,1.83
2018-08-18T12:14:21.611Z,1.43
2018-08-18T12:16:50.117Z,1.50
2018-08-18T12:19:18.578Z,1.70
2018-08-18T12:21:47.555Z,1.50
2018-08-18T12:24:19.345Z,2.00
2018-08-18T12:26:59.179Z,1.20
2018-08-18T12:29:30.314Z,1.40
2018-08-18T12:31:59.099Z,1.90
2018-08-18T12:34:27.744Z,1.83
2018-08-18T12:36:56.512Z,1.70
2018-08-18T12:39:25.032Z,1.50
2018-08-18T12:41:53.663Z,1.60
2018-08-18T12:44:31.205Z,1.33
2018-08-18T12:47:02.102Z,1.73
2018-08-18T12:49:31.353Z,1.90
2018-08-18T12:52:00.120Z,1.20
2018-08-18T12:54:28.643Z,1.27
2018-08-18T12:56:57.142Z,1.43
2018-08-18T12:59:25.674Z,1.00
2018-08-18T13:01:54.165Z,1.20
2018-08-18T13:04:22.783Z,1.23
2018-08-18T13:06:53.195Z,1.50
2018-08-18T13:09:22.872Z,1.53
2018-08-18T13:11:52.559Z,1.30
2018-08-18T13:14:27.122Z,1.40
2018-08-18T13:16:55.642Z,1.40
2018-08-18T13:19:29.657Z,1.10
2018-08-18T13:21:59.260Z,1.20
2018-08-18T13:24:30.000Z,1.20
2018-08-18T13:26:59.802Z,1.00
2018-08-18T13:29:28.416Z,1.63
2018-08-18T13:31:56.990Z,1.23
2018-08-18T13:34:25.477Z,1.20
2018-08-18T13:36:54.057Z,1.07
2018-08-18T13:39:22.501Z,0.90
2018-08-18T13:41:51.065Z,1.17
2018-08-18T13:44:27.031Z,1.00
2018-08-18T13:46:55.497Z,1.30
2018-08-18T13:49:25.231Z,1.20
2018-08-18T13:51:53.820Z,1.03
2018-08-18T13:54:22.308Z,1.10
2018-08-18T13:56:50.766Z,1.10
2018-08-18T13:59:54.959Z,0.90
2018-08-18T14:02:23.527Z,0.80
2018-08-18T14:04:58.296Z,1.47
2018-08-18T14:07:26.789Z,1.07
2018-08-18T14:10:01.189Z,0.90
2018-08-18T14:12:30.708Z,1.00
2018-08-18T14:14:59.159Z,1.17
2018-08-18T14:17:27.753Z,1.00
2018-08-18T14:19:56.191Z,1.33
2018-08-18T14:22:24.792Z,1.17
2018-08-18T14:24:53.246Z,1.00
2018-08-18T14:27:23.270Z,1.00
2018-08-18T14:29:51.959Z,1.17
2018-08-18T14:32:25.774Z,1.07
2018-08-18T14:35:01.561Z,1.43
2018-08-18T14:37:31.325Z,1.03
2018-08-18T14:40:00.056Z,1.23
2018-08-18T14:42:28.772Z,1.10
2018-08-18T14:44:58.660Z,2.17
2018-08-18T14:47:27.605Z,1.50
2018-08-18T14:50:12.376Z,1.13
2018-08-18T14:52:41.365Z,1.30
2018-08-18T14:55:10.163Z,1.37
2018-08-18T14:57:45.967Z,1.10
2018-08-18T15:00:14.560Z,1.30
2018-08-18T15:02:43.259Z,0.93
2018-08-18T15:05:11.846Z,1.00
2018-08-18T15:07:45.925Z,0.90
2018-08-18T15:10:30.528Z,1.10
2018-08-18T15:12:59.967Z,1.00
2018-08-18T15:15:29.028Z,1.40
2018-08-18T15:18:00.600Z,1.23
2018-08-18T15:20:31.761Z,1.53
2018-08-18T15:23:01.711Z,1.00
2018-08-18T15:25:34.242Z,1.30
2018-08-18T15:28:04.470Z,1.30
2018-08-18T15:30:34.567Z,1.00
2018-08-18T15:33:03.152Z,1.50
2018-08-18T15:35:32.573Z,1.70
2018-08-18T15:38:01.256Z,1.27
2018-08-18T15:40:30.015Z,1.23
2018-08-18T15:42:59.889Z,1.30
2018-08-18T15:45:29.233Z,1.57
2018-08-18T15:47:57.922Z,1.60
2018-08-18T15:50:27.544Z,1.57
2018-08-18T15:52:56.311Z,1.40
2018-08-18T15:55:25.038Z,1.33
2018-08-18T15:57:53.878Z,1.10
2018-08-18T16:00:34.106Z,1.80
2018-08-18T16:03:05.223Z,1.50
2018-08-18T16:05:34.984Z,2.03
2018-08-18T16:08:04.262Z,1.40
2018-08-18T16:10:32.938Z,1.43
2018-08-18T16:13:01.474Z,1.37
2018-08-18T16:15:30.576Z,1.43
2018-08-18T16:17:59.425Z,1.60
2018-08-18T16:20:28.047Z,1.53
2018-08-18T16:22:58.007Z,1.70
2018-08-18T16:25:36.711Z,1.60
2018-08-18T16:28:06.677Z,1.03
2018-08-18T16:30:35.841Z,2.40
2018-08-18T16:33:18.113Z,1.10
2018-08-18T16:35:47.284Z,1.40
2018-08-18T16:38:16.576Z,1.97
2018-08-18T16:40:45.168Z,1.73
2018-08-18T16:43:15.375Z,1.40
2018-08-18T16:45:44.135Z,1.63
2018-08-18T16:48:13.475Z,1.33
2018-08-18T16:50:43.308Z,1.83
2018-08-18T16:53:13.555Z,1.70
2018-08-18T16:55:43.355Z,1.63
2018-08-18T16:58:12.398Z,8.63
2018-08-18T17:00:58.531Z,3.10
2018-08-18T17:03:33.930Z,1.30
2018-08-18T17:06:04.083Z,1.07
2018-08-18T17:08:33.071Z,1.60
2018-08-18T17:11:03.663Z,2.53
2018-08-18T17:13:34.211Z,1.67
2018-08-18T17:16:03.684Z,1.40
2018-08-18T17:18:32.331Z,1.47
2018-08-18T17:21:02.438Z,1.50
2018-08-18T17:23:32.513Z,1.83
2018-08-18T17:26:01.532Z,1.80
2018-08-18T17:28:31.219Z,1.90
2018-08-18T17:31:02.572Z,2.13
2018-08-18T17:33:31.404Z,2.20
2018-08-18T17:36:00.370Z,2.60
2018-08-18T17:38:29.731Z,2.53
2018-08-18T17:40:58.448Z,2.67
2018-08-18T17:43:27.201Z,2.33
2018-08-18T17:45:57.045Z,2.47
2018-08-18T17:48:27.496Z,2.83
2018-08-18T17:50:56.748Z,2.80
2018-08-18T17:53:25.883Z,3.70
2018-08-18T17:56:00.691Z,2.50
2018-08-18T17:58:29.458Z,3.00
2018-08-18T18:00:58.578Z,3.80
2018-08-18T18:03:27.435Z,3.37
2018-08-18T18:05:56.723Z,3.10
2018-08-18T18:08:27.183Z,3.97
2018-08-18T18:10:55.986Z,2.90
2018-08-18T18:13:26.736Z,3.80
2018-08-18T18:15:55.454Z,4.07
2018-08-18T18:18:30.016Z,3.77
2018-08-18T18:21:02.913Z,3.90
2018-08-18T18:23:33.351Z,3.60
2018-08-18T18:26:04.513Z,2.70
2018-08-18T18:28:33.159Z,2.40
2018-08-18T18:31:01.735Z,3.13
2018-08-18T18:33:30.497Z,3.07
2018-08-18T18:35:59.101Z,2.90
2018-08-18T18:38:27.683Z,2.90
2018-08-18T18:40:56.268Z,2.43
2018-08-18T18:43:24.896Z,2.20
2018-08-18T18:45:56.203Z,3.27
2018-08-18T18:48:24.995Z,2.87
2018-08-18T18:53:48.614Z,2.60
2018-08-18T18:56:17.386Z,2.57
2018-08-18T18:58:46.253Z,2.80
2018-08-18T19:01:16.670Z,2.10
2018-08-18T19:03:45.304Z,2.73
2018-08-18T19:06:13.716Z,2.90
2018-08-18T19:08:56.262Z,2.80
2018-08-18T19:11:26.511Z,2.00
2018-08-18T19:13:54.930Z,3.30
2018-08-18T19:16:23.727Z,2.80
2018-08-18T19:18:52.116Z,3.57
2018-08-18T19:21:21.021Z,3.10
2018-08-18T19:23:49.594Z,3.73
2018-08-18T19:26:19.143Z,2.83
2018-08-18T19:28:48.499Z,3.37
2018-08-18T19:31:17.355Z,3.50
2018-08-18T19:33:47.720Z,3.50
2018-08-18T19:36:16.148Z,2.67
2018-08-18T19:38:44.654Z,3.07
2018-08-18T19:41:14.279Z,2.70
2018-08-18T19:43:43.785Z,3.30
2018-08-18T19:46:16.738Z,2.90
2018-08-18T19:48:45.818Z,2.83
2018-08-18T19:51:15.659Z,2.33
2018-08-18T19:53:44.764Z,4.90
2018-08-18T19:56:14.036Z,2.20
2018-08-18T19:58:42.850Z,2.60
2018-08-18T20:01:11.867Z,2.87
2018-08-18T20:03:41.435Z,2.17
2018-08-18T20:06:15.403Z,2.37
2018-08-18T20:08:44.772Z,2.30
2018-08-18T20:11:13.441Z,2.30
2018-08-18T20:13:42.007Z,2.93
2018-08-18T20:16:12.882Z,3.30
2018-08-18T20:18:41.445Z,2.63
2018-08-18T20:21:09.839Z,2.33
2018-08-18T20:23:40.159Z,2.80
2018-08-18T20:26:09.238Z,2.50
2018-08-18T20:28:37.735Z,2.63
2018-08-18T20:31:09.564Z,2.60
2018-08-18T20:33:38.143Z,3.03
2018-08-18T20:36:07.804Z,3.00
2018-08-18T20:38:42.344Z,3.47
2018-08-18T20:41:12.122Z,2.67
2018-08-18T20:43:43.647Z,2.40
2018-08-18T20:46:12.299Z,2.03
2018-08-18T20:48:42.636Z,2.20
2018-08-18T20:51:14.689Z,3.17
2018-08-18T20:53:44.067Z,3.30
2018-08-18T20:56:12.791Z,2.67
2018-08-18T20:58:41.204Z,3.07
2018-08-18T21:01:10.046Z,3.50
2018-08-18T21:03:48.129Z,3.47
2018-08-18T21:06:17.576Z,2.93
2018-08-18T21:08:45.940Z,3.57
2018-08-18T21:11:14.916Z,3.00
2018-08-18T21:13:45.787Z,3.20
2018-08-18T21:16:14.489Z,3.10
2018-08-18T21:18:43.040Z,3.10
2018-08-18T21:21:45.334Z,3.60
2018-08-18T21:24:14.063Z,3.40
2018-08-18T21:26:45.223Z,3.37
2018-08-18T21:29:13.814Z,3.83
2018-08-18T21:31:42.261Z,3.50
2018-08-18T21:34:10.785Z,3.13
2018-08-18T21:36:39.417Z,3.30
2018-08-18T21:39:09.559Z,3.17
2018-08-18T21:41:39.679Z,3.00
2018-08-18T21:44:10.095Z,2.67
2018-08-18T21:46:39.222Z,2.63
2018-08-18T21:49:09.073Z,3.40
2018-08-18T21:51:37.772Z,3.13
2018-08-18T21:54:07.885Z,3.00
2018-08-18T21:56:37.753Z,4.07
2018-08-18T21:59:07.465Z,4.00
2018-08-18T22:01:36.133Z,4.20
2018-08-18T22:04:04.870Z,5.73
2018-08-18T22:06:33.564Z,5.00
2018-08-18T22:09:17.031Z,4.40
2018-08-18T22:11:47.138Z,4.23
2018-08-18T22:14:17.317Z,4.10
2018-08-18T22:16:56.940Z,3.73
2018-08-18T22:19:26.118Z,3.97
2018-08-18T22:21:54.689Z,3.63
2018-08-18T22:24:24.305Z,3.27
2018-08-18T22:26:53.036Z,3.70
2018-08-18T22:29:24.208Z,3.00
2018-08-18T22:31:54.125Z,3.20
2018-08-18T22:34:23.700Z,3.53
2018-08-18T22:36:56.381Z,3.07
2018-08-18T22:39:25.051Z,3.63
2018-08-18T22:41:54.728Z,3.10
2018-08-18T22:44:24.368Z,2.87
2018-08-18T22:46:53.141Z,3.57
2018-08-18T22:49:21.847Z,2.93
2018-08-18T22:51:51.371Z,2.90
2018-08-18T22:54:20.687Z,2.87
2018-08-18T22:57:05.592Z,3.33
2018-08-18T22:59:34.065Z,3.20
2018-08-18T23:02:05.593Z,2.60
2018-08-18T23:04:37.439Z,3.00
2018-08-18T23:07:07.476Z,2.90
2018-08-18T23:09:35.924Z,3.27
2018-08-18T23:12:06.215Z,2.57
2018-08-18T23:14:37.913Z,3.17
2018-08-18T23:17:10.699Z,2.70
2018-08-18T23:19:39.213Z,3.50
2018-08-18T23:22:18.265Z,3.80
2018-08-18T23:24:47.093Z,3.13
2018-08-18T23:27:15.631Z,3.00
2018-08-18T23:29:44.968Z,3.50
2018-08-18T23:32:18.979Z,2.83
2018-08-18T23:34:47.407Z,3.40
2018-08-18T23:37:19.845Z,3.57
2018-08-18T23:39:54.946Z,3.60
2018-08-18T23:42:24.678Z,4.00
2018-08-18T23:44:53.436Z,3.50
2018-08-18T23:47:22.696Z,3.23
2018-08-18T23:49:51.941Z,3.50
2018-08-18T23:52:20.647Z,3.40
2018-08-18T23:54:50.066Z,4.80
2018-08-18T23:57:18.916Z,3.93
2018-08-18T23:59:48.922Z,4.37
